DAQO New Energy ROE 2011-2024 | DQ

Current and historical return on equity (ROE) values for DAQO New Energy (DQ) over the last 10 years. Return on equity can be defined as the amount of net income returned as a percentage of shareholders equity. Return on equity measures a corporation's profitability by revealing how much profit a company generates with the money shareholders have invested.
DAQO New Energy ROE - Return on Equity Historical Data
Date TTM Net Income Shareholder's Equity Return on Equity
2024-03-31 $0.39B $6.39B 6.12%
2023-12-31 $0.43B $6.45B 6.56%
2023-09-30 $0.48B $6.35B 7.34%
2023-06-30 $0.81B $6.45B 12.55%
2023-03-31 $1.34B $6.98B 21.42%
2022-12-31 $1.82B $6.61B 34.14%
2022-09-30 $1.63B $5.87B 37.46%
2022-06-30 $1.60B $5.51B 45.76%
2022-03-31 $1.20B $3.34B 50.08%
2021-12-31 $0.75B $2.66B 41.92%
2021-09-30 $0.68B $2.45B 51.58%
2021-06-30 $0.41B $1.14B 46.58%
2021-03-31 $0.18B $0.89B 23.87%
2020-12-31 $0.13B $0.80B 19.04%
2020-09-30 $0.08B $0.69B 12.27%
2020-06-30 $0.06B $0.63B 10.34%
2020-03-31 $0.06B $0.60B 10.05%
2019-12-31 $0.03B $0.57B 5.50%
2019-09-30 $0.02B $0.53B 3.92%
2019-06-30 $-0.00B $0.54B -0.38%
2019-03-31 $0.01B $0.55B 2.44%
2018-12-31 $0.04B $0.53B 7.52%
2018-09-30 $0.06B $0.51B 12.90%
2018-06-30 $0.10B $0.54B 23.84%
2018-03-31 $0.10B $0.44B 27.18%
2017-12-31 $0.09B $0.40B 27.41%
2017-09-30 $0.06B $0.35B 20.42%
2017-06-30 $0.05B $0.32B 17.18%
2017-03-31 $0.06B $0.30B 20.83%
2016-12-31 $0.04B $0.27B 16.07%
2016-09-30 $0.05B $0.28B 18.85%
2016-06-30 $0.04B $0.27B 16.40%
2016-03-31 $0.02B $0.25B 8.23%
2015-12-31 $0.01B $0.24B 5.44%
2015-09-30 $0.01B $0.24B 3.04%
2015-06-30 $0.01B $0.24B 4.50%
2015-03-31 $0.02B $0.24B 7.56%
2014-12-31 $0.02B $0.21B 9.65%
2014-09-30 $0.01B $0.21B 3.55%
2014-06-30 $-0.01B $0.20B -6.61%
2014-03-31 $-0.05B $0.14B -35.51%
2013-12-31 $-0.07B $0.14B -38.59%
2013-09-30 $-0.14B $0.13B -59.15%
2013-06-30 $-0.15B $0.14B -47.42%
2013-03-31 $-0.12B $0.32B -31.32%
2012-12-31 $-0.11B $0.34B -27.82%
2012-09-30 $-0.08B $0.42B -17.51%
2012-06-30 $-0.05B $0.43B -10.63%
2012-03-31 $-0.02B $0.44B -3.25%
2011-12-31 $0.03B $0.45B 7.38%
2011-06-30 $0.08B $0.47B 20.80%
Sector Industry Market Cap Revenue
Basic Materials Chemicals - Specialty $1.334B $2.309B
Daqo New Energy Corp. is engaged in the manufacture and sale of high-quality polysilicon to photovoltaic product manufacturers. The polysilicon is further processed into ingots, wafers, cells and modules for solar power solutions. Daqo New Energy Corp., formerly known as Mega Stand International Limited, is headquartered in Wanzhou, The People's Republic of China.
Stock Name Country Market Cap PE Ratio
Linde (LIN) United Kingdom $207.796B 29.73
Ecolab (ECL) United States $66.575B 41.12
Givaudan SA (GVDNY) Switzerland $42.535B 0.00
PPG Industries (PPG) United States $30.724B 16.99
Novozymes (NVZMY) Denmark $28.796B 38.92
Celanese (CE) United States $16.557B 16.86
Croda (COIHY) United Kingdom $8.046B 0.00
Axalta Coating Systems (AXTA) United States $7.703B 20.42
Element Solutions (ESI) United States $5.780B 17.95
NewMarket (NEU) United States $5.202B 13.04
Valvoline (VVV) United States $5.150B 27.01
Balchem (BCPC) United States $4.985B 43.43
Ashland (ASH) United States $4.915B 29.18
Arcadium Lithium (ALTM) United States $4.892B 3.37
H B Fuller (FUL) United States $4.330B 19.97
CSW Industrials (CSWI) United States $3.972B 36.49
Nissan Chemical (NNCHY) Japan $3.860B 15.54
Orbia Advance, S.A.B De C.V (MXCHY) Mexico $3.707B 0.00
Quaker Houghton (KWR) United States $3.300B 23.37
Sensient Technologies (SXT) United States $3.158B 26.07
Minerals Technologies (MTX) United States $2.684B 14.94
Hawkins (HWKN) United States $1.835B 24.44
Ingevity (NGVT) United States $1.747B 14.36
Orion S.A (OEC) United States $1.423B 14.27
Green Plains (GPRE) United States $1.199B 0.00
Perimeter Solutions, SA (PRM) Luxembourg $1.114B 0.00
ELEMENTIS (ELMTY) United Kingdom $1.104B 0.00
Mativ Holdings (MATV) United States $1.022B 19.39
Huabao Holdings (HUIHY) Hong Kong, SAR China $0.943B 0.00
Westlake Chemical Partners LP (WLKP) United States $0.787B 14.51
AdvanSix (ASIX) United States $0.615B 0.00
Westaim (WEDXF) Canada $0.387B 3.73
NL Industries (NL) United States $0.365B 31.12
American Vanguard (AVD) United States $0.246B 30.34
5E Advanced Materials (FEAM) United States $0.079B 0.00